Time;durP1;ratioP1;P1;durP2;ratioP2;P2;SDS_P1;SDS_P2;PMS_P1;PMS_P2;Temp;Humidity;BMP_temperature;BMP_pressure;BME280_temperature;BME280_humidity;BME280_pressure;Samples;Min_cycle;Max_cycle;Signal;HPM_P1;HPM_P2
2021/03/03 00:01:43;;;;;;;26.77;15.05;;;6.00;99.90;;;;;;5090788;28;20070;-45
2021/03/03 00:04:09;;;;;;;25.67;15.40;;;6.00;99.90;;;;;;5076776;28;20033;-44
2021/03/03 00:06:34;;;;;;;24.63;14.90;;;6.00;99.90;;;;;;5070585;28;20032;-43
2021/03/03 00:09:00;;;;;;;24.25;14.82;;;6.00;99.90;;;;;;5081708;28;20067;-43
2021/03/03 00:11:25;;;;;;;23.45;14.77;;;5.90;99.90;;;;;;5090732;28;20481;-43
2021/03/03 00:13:51;;;;;;;26.27;14.52;;;5.90;99.90;;;;;;5080360;28;20040;-43
2021/03/03 00:16:17;;;;;;;29.83;15.70;;;5.90;99.90;;;;;;5070239;28;20032;-43
2021/03/03 00:18:42;;;;;;;26.67;14.60;;;5.80;99.90;;;;;;5077956;28;20028;-45
2021/03/03 00:21:08;;;;;;;27.83;14.30;;;5.80;99.90;;;;;;5090714;28;20032;-47
2021/03/03 00:23:34;;;;;;;23.55;14.88;;;5.70;99.90;;;;;;5083728;28;20482;-46
2021/03/03 00:25:59;;;;;;;29.40;16.13;;;5.70;99.90;;;;;;5070391;28;20072;-45
2021/03/03 00:28:25;;;;;;;31.13;15.48;;;5.60;99.90;;;;;;5071817;28;20024;-44
2021/03/03 00:30:50;;;;;;;28.77;16.80;;;5.60;99.90;;;;;;5070388;28;20064;-46
2021/03/03 00:33:16;;;;;;;30.70;14.75;;;5.50;99.90;;;;;;5071030;28;20029;-46
2021/03/03 00:35:41;;;;;;;23.30;14.27;;;5.50;99.90;;;;;;5070345;28;20029;-45
2021/03/03 00:38:07;;;;;;;25.70;15.52;;;5.40;99.90;;;;;;5070700;28;20025;-42
2021/03/03 00:40:33;;;;;;;21.98;14.95;;;5.40;99.90;;;;;;5090852;28;20112;-43
2021/03/03 00:42:58;;;;;;;31.27;16.35;;;5.30;99.90;;;;;;5090408;28;20107;-44
2021/03/03 00:45:24;;;;;;;24.17;14.40;;;5.30;99.90;;;;;;5070916;28;20123;-43
2021/03/03 00:47:50;;;;;;;33.03;15.18;;;5.20;99.90;;;;;;5070198;28;20071;-42
2021/03/03 00:50:15;;;;;;;31.55;15.48;;;5.10;99.90;;;;;;5087691;28;20389;-44
2021/03/03 00:52:41;;;;;;;24.08;14.90;;;5.10;99.90;;;;;;5094733;28;20023;-45
2021/03/03 00:55:07;;;;;;;23.85;13.70;;;5.10;99.90;;;;;;5092599;28;20184;-43
2021/03/03 00:57:32;;;;;;;23.20;12.98;;;5.10;99.90;;;;;;5075932;28;20431;-45
2021/03/03 00:59:58;;;;;;;22.98;13.45;;;5.10;99.90;;;;;;5079884;28;20417;-42
2021/03/03 01:02:23;;;;;;;19.80;11.70;;;5.00;99.90;;;;;;5087774;28;20085;-45
2021/03/03 01:04:49;;;;;;;23.92;12.75;;;5.00;99.90;;;;;;5093698;28;20024;-42
2021/03/03 01:07:14;;;;;;;21.40;12.18;;;5.00;99.90;;;;;;5083163;28;20036;-44
2021/03/03 01:09:40;;;;;;;20.52;13.85;;;5.00;99.90;;;;;;5073589;28;20021;-44
2021/03/03 01:12:06;;;;;;;21.98;13.63;;;4.90;99.90;;;;;;5078283;28;20111;-42
2021/03/03 01:14:31;;;;;;;18.10;12.35;;;4.90;99.90;;;;;;5093419;28;20020;-44
2021/03/03 01:16:57;;;;;;;24.08;12.82;;;5.00;99.90;;;;;;5092066;28;20635;-43
2021/03/03 01:19:22;;;;;;;23.60;11.20;;;5.00;99.90;;;;;;5075479;28;20035;-43
2021/03/03 01:21:48;;;;;;;18.98;12.15;;;4.90;99.90;;;;;;5092038;28;20509;-45
2021/03/03 01:24:14;;;;;;;21.70;12.55;;;4.90;99.90;;;;;;5093281;28;20449;-44
2021/03/03 01:26:42;;;;;;;29.35;13.95;;;4.80;99.90;;;;;;5091787;28;20082;-43
2021/03/03 01:29:08;;;;;;;23.02;13.93;;;4.70;99.90;;;;;;5075352;28;20433;-47
2021/03/03 01:31:33;;;;;;;25.35;13.00;;;4.60;99.90;;;;;;5061224;28;20064;-43
2021/03/03 01:34:00;;;;;;;23.08;13.32;;;4.60;99.90;;;;;;5054875;28;20025;-44
2021/03/03 01:36:26;;;;;;;21.17;12.50;;;4.40;99.90;;;;;;5084929;28;20040;-43
2021/03/03 01:38:51;;;;;;;22.52;13.50;;;4.40;99.90;;;;;;5093102;28;20477;-43
2021/03/03 01:41:17;;;;;;;25.77;15.23;;;4.40;99.90;;;;;;5082731;28;20397;-45
2021/03/03 01:43:42;;;;;;;21.77;13.02;;;4.40;99.90;;;;;;5054596;28;20493;-44
2021/03/03 01:46:08;;;;;;;21.17;13.32;;;4.50;99.90;;;;;;5080944;28;20039;-44
2021/03/03 01:48:34;;;;;;;24.88;15.38;;;4.50;99.90;;;;;;5093262;28;20016;-48
2021/03/03 01:50:59;;;;;;;31.15;16.80;;;4.60;99.90;;;;;;5086024;28;20123;-45
2021/03/03 01:53:25;;;;;;;26.77;14.70;;;4.80;99.90;;;;;;5072412;28;20035;-46
2021/03/03 01:55:53;;;;;;;34.97;15.40;;;4.70;99.90;;;;;;5093047;28;20039;-42
2021/03/03 01:58:18;;;;;;;22.83;12.63;;;4.70;99.90;;;;;;5092969;28;20031;-43
2021/03/03 02:00:44;;;;;;;19.38;12.30;;;4.60;99.90;;;;;;5091048;28;20032;-44
2021/03/03 02:03:09;;;;;;;18.73;11.13;;;4.60;99.90;;;;;;5091573;28;20373;-44
2021/03/03 02:05:35;;;;;;;24.90;13.30;;;4.50;99.90;;;;;;5075621;28;20060;-43
2021/03/03 02:08:17;;;;;;;19.67;12.65;;;4.50;99.90;;;;;;5072423;28;20028;-44
2021/03/03 02:10:51;;;;;;;19.48;11.38;;;4.30;99.90;;;;;;5073654;28;20033;-44
2021/03/03 02:13:55;;;;;;;24.00;14.02;;;4.30;99.90;;;;;;5073102;28;20103;-44
2021/03/03 02:16:21;;;;;;;18.23;11.40;;;4.30;99.90;;;;;;5050689;28;20040;-43
2021/03/03 02:18:48;;;;;;;20.77;12.35;;;4.30;99.90;;;;;;5086656;28;20039;-43
2021/03/03 02:21:37;;;;;;;24.13;11.95;;;4.30;99.90;;;;;;5072925;28;20494;-44
2021/03/03 02:24:16;;;;;;;22.70;12.05;;;4.30;99.90;;;;;;5092194;28;20028;-44
2021/03/03 02:26:42;;;;;;;20.30;11.80;;;4.20;99.90;;;;;;5085711;28;20104;-43
2021/03/03 02:29:18;;;;;;;19.13;12.55;;;4.20;99.90;;;;;;5072185;28;20454;-45
2021/03/03 02:31:45;;;;;;;19.77;12.07;;;4.30;99.90;;;;;;5078348;28;20405;-47
2021/03/03 02:34:14;;;;;;;20.27;11.77;;;4.20;99.90;;;;;;5091878;28;20543;-47
2021/03/03 02:36:42;;;;;;;18.83;11.60;;;4.20;99.90;;;;;;5087066;28;20030;-45
2021/03/03 02:39:09;;;;;;;22.35;12.02;;;4.20;99.90;;;;;;5071925;28;20032;-45
2021/03/03 02:41:36;;;;;;;20.83;11.50;;;4.20;99.90;;;;;;5075406;28;20039;-42
2021/03/03 02:44:04;;;;;;;19.27;11.25;;;4.20;99.90;;;;;;5091843;28;20062;-45
2021/03/03 02:46:31;;;;;;;17.52;11.27;;;4.20;99.90;;;;;;5089249;28;20054;-43
2021/03/03 02:48:57;;;;;;;17.80;11.82;;;4.20;99.90;;;;;;5071741;28;20393;-45
2021/03/03 02:51:23;;;;;;;19.05;12.02;;;4.20;99.90;;;;;;5072396;28;20078;-44
2021/03/03 02:53:48;;;;;;;21.05;11.65;;;4.20;99.90;;;;;;5073380;28;20556;-47
2021/03/03 02:56:14;;;;;;;19.67;12.85;;;4.10;99.90;;;;;;5091876;28;20028;-45
2021/03/03 02:58:39;;;;;;;20.27;12.40;;;4.10;99.90;;;;;;5072096;28;20032;-45
2021/03/03 03:01:08;;;;;;;25.08;13.63;;;4.10;99.90;;;;;;5071540;28;20207;-42
2021/03/03 03:03:40;;;;;;;19.92;12.63;;;4.20;99.90;;;;;;5088932;28;20507;-43
2021/03/03 03:06:22;;;;;;;27.77;14.20;;;4.40;99.90;;;;;;5091733;28;20512;-45
2021/03/03 03:08:49;;;;;;;25.77;14.43;;;4.50;99.90;;;;;;5071903;28;20047;-44
2021/03/03 03:11:25;;;;;;;24.80;14.40;;;4.50;99.90;;;;;;5053330;28;20024;-43
2021/03/03 03:13:57;;;;;;;26.30;15.13;;;4.70;99.90;;;;;;5089664;28;20621;-43
2021/03/03 03:16:22;;;;;;;27.42;16.63;;;4.60;99.90;;;;;;5091434;28;20116;-43
2021/03/03 03:18:53;;;;;;;26.85;16.75;;;4.60;99.90;;;;;;5073016;28;20124;-45
2021/03/03 03:21:19;;;;;;;26.80;16.85;;;4.60;99.90;;;;;;5071084;28;20021;-44
2021/03/03 03:23:46;;;;;;;26.38;13.77;;;4.50;99.90;;;;;;5088136;28;20024;-45
2021/03/03 03:26:12;;;;;;;19.73;12.77;;;4.40;99.90;;;;;;5091518;28;20146;-43
2021/03/03 03:28:38;;;;;;;16.60;11.63;;;4.30;99.90;;;;;;5057785;28;20021;-46
2021/03/03 03:31:08;;;;;;;19.13;11.82;;;4.30;99.90;;;;;;5082844;28;20149;-46
2021/03/03 03:33:34;;;;;;;19.98;10.95;;;4.20;99.90;;;;;;5091202;28;20103;-43
2021/03/03 03:36:04;;;;;;;19.95;12.48;;;4.10;99.90;;;;;;5080758;28;20441;-42
2021/03/03 03:38:31;;;;;;;21.25;12.57;;;4.10;99.90;;;;;;5071152;28;20020;-45
2021/03/03 03:41:02;;;;;;;19.70;12.75;;;4.10;99.90;;;;;;5086953;28;20028;-42
2021/03/03 03:43:28;;;;;;;18.58;11.05;;;4.00;99.90;;;;;;5072890;28;20016;-43
2021/03/03 03:45:55;;;;;;;16.33;11.07;;;4.10;99.90;;;;;;5075722;28;20138;-46
2021/03/03 03:48:21;;;;;;;27.83;12.55;;;4.00;99.90;;;;;;5070972;28;20500;-43
2021/03/03 03:50:47;;;;;;;17.67;11.93;;;3.90;99.90;;;;;;5071880;28;20486;-43
2021/03/03 03:53:13;;;;;;;22.30;11.63;;;3.90;99.90;;;;;;5070700;28;20021;-43
2021/03/03 03:55:38;;;;;;;18.45;12.77;;;3.80;99.90;;;;;;5082247;28;20069;-43
2021/03/03 03:58:07;;;;;;;18.13;12.27;;;3.80;99.90;;;;;;5091002;28;20055;-44
2021/03/03 04:00:33;;;;;;;17.27;12.57;;;3.80;99.90;;;;;;5081569;28;20035;-42
2021/03/03 04:02:59;;;;;;;23.08;11.82;;;3.80;99.90;;;;;;5070197;28;20024;-46
2021/03/03 04:05:27;;;;;;;30.15;13.77;;;3.80;99.90;;;;;;5078642;28;20027;-43
2021/03/03 04:07:53;;;;;;;16.60;11.43;;;3.80;99.90;;;;;;5090323;28;20551;-44
2021/03/03 04:10:21;;;;;;;15.07;11.00;;;3.80;99.90;;;;;;5088931;28;20042;-43
2021/03/03 04:12:47;;;;;;;23.55;13.68;;;3.80;99.90;;;;;;5090080;28;20063;-46
2021/03/03 04:15:13;;;;;;;22.73;12.75;;;3.80;99.90;;;;;;5082166;28;20052;-43
2021/03/03 04:17:40;;;;;;;27.08;13.98;;;3.90;99.90;;;;;;5070181;28;20544;-43
2021/03/03 04:20:07;;;;;;;20.27;11.85;;;3.80;99.90;;;;;;5071320;28;20135;-42
2021/03/03 04:22:33;;;;;;;23.63;14.23;;;3.70;99.90;;;;;;5069882;28;20501;-42
2021/03/03 04:25:00;;;;;;;17.25;12.23;;;3.80;99.90;;;;;;5075327;28;20043;-43
2021/03/03 04:27:26;;;;;;;21.90;12.63;;;;;;;;;;5094038;28;20474;-46
2021/03/03 04:29:51;;;;;;;31.35;13.38;;;3.70;99.90;;;;;;5090849;28;20031;-46
2021/03/03 04:32:16;;;;;;;21.48;12.45;;;3.70;99.90;;;;;;5074228;28;20028;-42
2021/03/03 04:34:42;;;;;;;21.95;12.60;;;3.80;99.90;;;;;;5081116;28;20020;-42
2021/03/03 04:37:08;;;;;;;25.73;13.05;;;3.80;99.90;;;;;;5094997;28;20072;-44
2021/03/03 04:39:33;;;;;;;20.92;12.68;;;3.70;99.90;;;;;;5088813;28;20024;-42
2021/03/03 04:41:59;;;;;;;21.90;11.55;;;3.70;99.90;;;;;;5074289;28;20024;-43
2021/03/03 04:44:24;;;;;;;22.88;12.02;;;3.60;99.90;;;;;;5077007;28;20116;-46
2021/03/03 04:46:50;;;;;;;24.42;12.27;;;3.60;99.90;;;;;;5094235;28;20036;-43
2021/03/03 04:49:15;;;;;;;21.50;12.18;;;3.50;99.90;;;;;;5092491;28;20020;-47
2021/03/03 04:51:41;;;;;;;19.60;13.02;;;3.50;99.90;;;;;;5074864;28;20397;-44
2021/03/03 04:54:06;;;;;;;22.75;12.85;;;3.50;99.90;;;;;;5073496;28;20023;-43
2021/03/03 04:56:32;;;;;;;23.85;13.77;;;3.50;99.90;;;;;;5093789;28;20028;-43
2021/03/03 04:58:57;;;;;;;23.95;12.27;;;3.50;99.90;;;;;;5075935;28;20503;-43
2021/03/03 05:01:23;;;;;;;24.77;12.80;;;3.50;99.90;;;;;;5092353;28;20043;-43
2021/03/03 05:03:48;;;;;;;18.85;11.18;;;3.40;99.90;;;;;;5093578;28;20035;-43
2021/03/03 05:06:14;;;;;;;20.35;12.40;;;3.40;99.90;;;;;;5078634;28;20082;-43
2021/03/03 05:08:39;;;;;;;19.45;12.13;;;3.40;99.90;;;;;;5055527;28;20142;-42
2021/03/03 05:11:05;;;;;;;24.17;14.05;;;3.40;99.90;;;;;;5087244;28;20040;-42
2021/03/03 05:13:30;;;;;;;22.48;12.95;;;3.40;99.90;;;;;;5093143;28;20035;-42
2021/03/03 05:15:56;;;;;;;20.27;13.73;;;3.40;99.90;;;;;;5081215;28;20111;-44
2021/03/03 05:18:22;;;;;;;24.75;12.65;;;3.30;99.90;;;;;;5073015;28;20020;-42
2021/03/03 05:20:47;;;;;;;23.23;12.57;;;3.30;99.90;;;;;;5074287;28;20066;-42
2021/03/03 05:23:13;;;;;;;22.70;12.95;;;3.30;99.90;;;;;;5072869;28;20028;-44
2021/03/03 05:25:38;;;;;;;29.83;13.38;;;3.30;99.90;;;;;;5081190;28;20027;-42
2021/03/03 05:28:04;;;;;;;18.95;12.40;;;3.30;99.90;;;;;;5093308;28;20381;-46
2021/03/03 05:30:30;;;;;;;20.15;12.60;;;3.30;99.90;;;;;;5091559;28;20024;-43
2021/03/03 05:32:55;;;;;;;22.88;13.77;;;3.20;99.90;;;;;;5092923;28;20425;-44
2021/03/03 05:35:21;;;;;;;22.10;12.07;;;3.20;99.90;;;;;;5077321;28;20028;-42
2021/03/03 05:37:47;;;;;;;24.52;12.65;;;3.20;99.90;;;;;;5072915;28;20041;-43
2021/03/03 05:40:14;;;;;;;22.10;13.55;;;3.20;99.90;;;;;;5086463;28;20546;-43
2021/03/03 05:42:39;;;;;;;18.52;12.48;;;3.20;99.90;;;;;;5092960;28;20024;-42
2021/03/03 05:45:06;;;;;;;21.35;13.00;;;3.20;99.90;;;;;;5080902;28;20035;-44
2021/03/03 05:47:37;;;;;;;21.55;12.95;;;3.20;99.90;;;;;;5072724;28;20077;-45
2021/03/03 05:50:06;;;;;;;25.45;12.32;;;3.20;99.90;;;;;;5083491;28;20104;-43
2021/03/03 05:52:35;;;;;;;18.40;11.50;;;3.20;99.90;;;;;;5092825;28;20461;-40
2021/03/03 05:55:03;;;;;;;23.90;14.10;;;3.20;99.90;;;;;;5082625;28;20028;-44
2021/03/03 05:57:31;;;;;;;22.30;13.52;;;3.20;99.90;;;;;;5111288;22;20416;-45
2021/03/03 05:59:58;;;;;;;23.00;12.70;;;3.20;99.90;;;;;;5113190;28;20024;-45
2021/03/03 06:02:24;;;;;;;27.45;14.38;;;3.20;99.90;;;;;;5113487;28;20102;-47
2021/03/03 06:04:50;;;;;;;22.48;14.25;;;3.30;99.90;;;;;;5105070;28;20111;-46
2021/03/03 06:07:16;;;;;;;22.38;13.38;;;3.20;99.90;;;;;;5063761;28;20127;-46
2021/03/03 06:09:42;;;;;;;20.63;13.38;;;3.30;99.90;;;;;;5077534;28;20103;-43
2021/03/03 06:12:08;;;;;;;23.40;13.57;;;3.30;99.90;;;;;;5093318;28;20016;-42
2021/03/03 06:14:34;;;;;;;26.58;14.18;;;3.20;99.90;;;;;;5087153;28;20031;-42
2021/03/03 06:16:59;;;;;;;19.38;12.43;;;3.10;99.90;;;;;;5072580;28;20454;-43
2021/03/03 06:19:25;;;;;;;20.30;12.98;;;3.10;99.90;;;;;;5074899;28;20528;-43
2021/03/03 06:21:51;;;;;;;23.98;13.02;;;3.00;99.90;;;;;;5093091;28;20028;-43
2021/03/03 06:24:17;;;;;;;26.38;14.50;;;2.90;99.90;;;;;;5091600;28;20024;-48
2021/03/03 06:27:00;;;;;;;29.17;16.42;;;3.00;99.90;;;;;;5072610;28;20406;-44
2021/03/03 06:29:26;;;;;;;24.55;15.85;;;2.90;99.90;;;;;;5073994;28;20045;-43
2021/03/03 06:31:51;;;;;;;25.98;16.52;;;3.00;99.90;;;;;;5092578;28;20536;-43
2021/03/03 06:34:19;;;;;;;32.30;17.15;;;3.00;99.90;;;;;;5092132;28;20016;-46
2021/03/03 06:36:48;;;;;;;27.27;15.73;;;3.10;99.90;;;;;;5072960;28;20101;-43
2021/03/03 06:39:15;;;;;;;25.15;16.30;;;3.20;99.90;;;;;;5072360;28;20020;-45
2021/03/03 06:41:41;;;;;;;27.92;15.85;;;3.10;99.90;;;;;;5090857;28;20034;-50
2021/03/03 06:44:07;;;;;;;26.67;14.65;;;3.00;99.90;;;;;;5091987;28;20549;-48
2021/03/03 06:46:32;;;;;;;23.40;14.88;;;3.00;99.90;;;;;;5072346;28;20042;-44
2021/03/03 06:48:58;;;;;;;28.48;16.85;;;3.00;99.90;;;;;;5091681;28;20026;-46
2021/03/03 06:51:29;;;;;;;29.15;16.25;;;3.10;99.90;;;;;;5077042;28;20025;-46
2021/03/03 06:54:05;;;;;;;24.08;15.73;;;3.20;99.90;;;;;;5071434;28;20017;-50
2021/03/03 06:56:42;;;;;;;21.92;14.98;;;3.10;99.90;;;;;;5056389;28;20434;-48
2021/03/03 06:59:32;;;;;;;26.60;15.65;;;3.20;99.90;;;;;;5072648;28;20056;-45
2021/03/03 07:02:08;;;;;;;28.65;14.48;;;3.10;99.90;;;;;;5090605;28;20050;-49
2021/03/03 07:04:36;;;;;;;19.65;13.60;;;3.20;99.90;;;;;;5092157;28;20028;-44
2021/03/03 07:07:11;;;;;;;34.20;14.23;;;3.20;99.90;;;;;;5090803;28;20063;-51
2021/03/03 07:09:44;;;;;;;28.85;13.05;;;3.30;99.90;;;;;;5093092;28;20034;-46
2021/03/03 07:12:18;;;;;;;25.33;13.85;;;3.30;99.90;;;;;;5074021;28;20111;-44
2021/03/03 07:15:05;;;;;;;40.88;15.48;;;3.40;99.90;;;;;;5070795;28;20029;-47
2021/03/03 07:17:34;;;;;;;21.70;13.02;;;3.40;99.90;;;;;;5091526;28;20400;-45
2021/03/03 07:20:05;;;;;;;24.60;14.15;;;3.50;99.90;;;;;;5092458;28;20081;-48
2021/03/03 07:22:31;;;;;;;34.67;15.95;;;3.50;99.90;;;;;;5053925;28;20031;-44
2021/03/03 07:24:58;;;;;;;27.80;17.08;;;3.70;99.90;;;;;;5071354;28;20107;-44
2021/03/03 07:27:24;;;;;;;37.38;15.02;;;3.80;99.90;;;;;;5072278;28;20413;-48
2021/03/03 07:29:56;;;;;;;27.35;14.60;;;3.90;99.90;;;;;;5071288;28;20024;-51
2021/03/03 07:32:21;;;;;;;32.90;15.88;;;4.00;99.90;;;;;;5088433;28;20039;-46
2021/03/03 07:34:49;;;;;;;30.52;16.10;;;4.00;99.90;;;;;;5090965;28;20485;-48
2021/03/03 07:37:17;;;;;;;27.05;17.10;;;4.10;99.90;;;;;;5089542;28;20393;-46
2021/03/03 07:39:47;;;;;;;30.73;17.45;;;4.20;99.90;;;;;;5091190;28;20478;-50
2021/03/03 07:42:22;;;;;;;29.30;15.75;;;4.20;99.90;;;;;;5076085;28;20032;-49
2021/03/03 07:44:49;;;;;;;34.00;17.20;;;4.20;99.90;;;;;;5052693;28;20021;-50
2021/03/03 07:47:17;;;;;;;32.13;16.85;;;4.30;99.90;;;;;;5053874;28;20410;-51
2021/03/03 07:49:45;;;;;;;27.27;16.08;;;4.30;99.90;;;;;;5071234;28;20558;-49
2021/03/03 07:52:13;;;;;;;43.05;18.95;;;4.50;99.90;;;;;;5083989;28;20024;-49
2021/03/03 07:54:39;;;;;;;31.50;18.23;;;4.50;99.90;;;;;;5090541;28;20027;-46
2021/03/03 07:57:07;;;;;;;30.77;19.08;;;4.60;99.90;;;;;;5090310;28;20043;-47
2021/03/03 07:59:32;;;;;;;38.78;18.42;;;4.90;99.90;;;;;;5091615;28;20036;-49
2021/03/03 08:01:58;;;;;;;39.28;18.60;;;5.00;99.90;;;;;;5079844;28;20025;-48
2021/03/03 08:04:40;;;;;;;35.33;18.73;;;5.10;99.90;;;;;;5070565;28;20561;-46
2021/03/03 08:07:20;;;;;;;43.25;23.60;;;5.30;99.90;;;;;;5072034;28;20094;-46
2021/03/03 08:10:14;;;;;;;45.05;24.05;;;5.40;99.90;;;;;;5071524;28;20123;-42
2021/03/03 08:13:01;;;;;;;35.78;20.17;;;5.50;99.90;;;;;;5083817;28;20024;-40
2021/03/03 08:15:47;;;;;;;36.40;19.55;;;5.60;99.90;;;;;;5089395;28;20031;-43
2021/03/03 08:18:23;;;;;;;;;;;5.70;99.90;;;;;;5089899;28;20028;-48
2021/03/03 08:20:53;;;;;;;33.17;19.10;;;5.70;99.90;;;;;;5090537;28;20373;-47
2021/03/03 08:23:34;;;;;;;42.05;20.80;;;5.80;99.90;;;;;;5071036;28;20025;-46
2021/03/03 08:26:11;;;;;;;43.35;20.77;;;5.90;99.90;;;;;;5070489;28;20086;-45
2021/03/03 08:28:41;;;;;;;37.60;20.13;;;6.00;99.90;;;;;;5087303;28;20175;-46
2021/03/03 08:31:07;;;;;;;36.75;17.98;;;6.10;99.90;;;;;;5088158;28;20119;-46
2021/03/03 08:33:35;;;;;;;34.85;19.05;;;6.20;99.90;;;;;;5084345;28;20029;-45
2021/03/03 08:36:00;;;;;;;30.60;17.67;;;6.30;99.90;;;;;;5052378;28;20501;-45
2021/03/03 08:38:26;;;;;;;32.72;19.67;;;6.50;99.90;;;;;;5070776;28;20103;-43
2021/03/03 08:40:52;;;;;;;31.88;18.52;;;6.60;99.90;;;;;;5070331;28;20482;-45
2021/03/03 08:43:36;;;;;;;34.42;21.50;;;6.70;99.90;;;;;;5087975;28;20436;-47
2021/03/03 08:46:17;;;;;;;38.55;19.90;;;6.90;99.90;;;;;;5089195;28;20029;-45
2021/03/03 08:48:43;;;;;;;35.22;19.80;;;7.00;99.90;;;;;;5072276;28;20028;-49
2021/03/03 08:51:24;;;;;;;33.65;19.52;;;7.10;99.90;;;;;;5071044;28;20081;-47
2021/03/03 08:53:54;;;;;;;38.58;20.05;;;7.20;99.90;;;;;;5069344;28;20074;-47
2021/03/03 08:56:49;;;;;;;38.33;19.35;;;7.30;99.90;;;;;;5061874;28;20036;-46
2021/03/03 08:59:36;;;;;;;34.30;20.52;;;7.40;99.90;;;;;;5069891;28;20044;-43
2021/03/03 09:02:18;;;;;;;36.38;20.35;;;7.50;99.90;;;;;;5073598;28;20021;-44
2021/03/03 09:04:45;;;;;;;40.67;19.00;;;7.40;99.90;;;;;;5089219;28;20017;-45
2021/03/03 09:07:18;;;;;;;32.90;20.80;;;7.50;99.90;;;;;;5088192;28;20074;-44
2021/03/03 09:09:45;;;;;;;31.60;19.17;;;7.50;99.90;;;;;;5071716;28;20028;-48
2021/03/03 09:12:13;;;;;;;32.78;19.05;;;7.50;99.90;;;;;;5073968;28;20027;-46
2021/03/03 09:14:40;;;;;;;33.85;20.88;;;7.50;99.90;;;;;;5070839;28;20025;-44
2021/03/03 09:17:12;;;;;;;32.85;18.48;;;7.60;99.90;;;;;;5074642;28;20044;-47
2021/03/03 09:19:38;;;;;;;36.33;21.02;;;7.50;99.90;;;;;;5073228;28;20028;-46
2021/03/03 09:22:25;;;;;;;35.33;21.50;;;7.60;99.90;;;;;;5087019;28;20032;-42
2021/03/03 09:24:53;;;;;;;34.97;21.30;;;7.60;99.90;;;;;;5093040;28;20085;-45
2021/03/03 09:27:21;;;;;;;33.65;19.67;;;7.50;99.90;;;;;;5093422;28;20038;-43
2021/03/03 09:29:48;;;;;;;36.17;21.15;;;7.60;99.90;;;;;;5093877;28;20020;-49
2021/03/03 09:32:23;;;;;;;38.05;21.45;;;7.50;99.90;;;;;;5093533;28;20023;-45
2021/03/03 09:34:54;;;;;;;37.35;20.92;;;7.60;99.90;;;;;;5093402;28;20031;-45
2021/03/03 09:37:21;;;;;;;33.70;20.77;;;7.70;99.90;;;;;;5077520;28;20081;-45
2021/03/03 09:40:07;;;;;;;35.42;20.20;;;7.90;99.90;;;;;;5097440;28;20068;-50
2021/03/03 09:42:41;;;;;;;29.55;19.23;;;8.20;99.90;;;;;;5099513;28;20046;-46
2021/03/03 09:45:09;;;;;;;34.70;19.92;;;8.40;99.80;;;;;;5098667;28;20020;-47
2021/03/03 09:47:40;;;;;;;32.90;19.52;;;8.80;99.10;;;;;;5096374;28;20253;-43
2021/03/03 09:50:14;;;;;;;34.15;19.25;;;9.20;98.60;;;;;;5093182;28;20017;-46
2021/03/03 09:52:43;;;;;;;32.78;20.10;;;9.50;97.50;;;;;;5092482;28;20490;-46
2021/03/03 09:55:12;;;;;;;30.58;19.40;;;9.90;96.90;;;;;;5090755;28;20039;-44
2021/03/03 09:57:38;;;;;;;38.60;19.98;;;10.00;96.60;;;;;;5084006;28;20036;-43
2021/03/03 10:00:14;;;;;;;29.83;19.15;;;10.40;96.50;;;;;;5072590;28;20017;-42
2021/03/03 10:02:55;;;;;;;30.83;18.90;;;10.80;95.70;;;;;;5064136;28;20077;-45
2021/03/03 10:05:26;;;;;;;33.20;19.98;;;10.90;95.30;;;;;;5063704;28;20028;-41
2021/03/03 10:07:55;;;;;;;41.47;21.90;;;11.00;94.90;;;;;;5084803;28;20024;-40
2021/03/03 10:10:23;;;;;;;30.25;19.83;;;11.10;94.40;;;;;;5075411;28;20043;-44
2021/03/03 10:12:49;;;;;;;32.63;21.60;;;11.20;94.40;;;;;;5089672;28;20439;-45
2021/03/03 10:15:22;;;;;;;32.53;19.10;;;11.30;94.40;;;;;;5092067;28;20104;-43
2021/03/03 10:17:52;;;;;;;27.27;20.25;;;11.10;94.30;;;;;;5077863;28;20032;-41
2021/03/03 10:20:35;;;;;;;35.78;23.02;;;11.40;94.30;;;;;;5074636;28;20028;-45
2021/03/03 10:23:28;;;;;;;35.97;23.38;;;11.60;93.40;;;;;;5075673;28;20032;-46
2021/03/03 10:26:07;;;;;;;40.50;22.33;;;11.80;92.90;;;;;;5060931;28;20462;-39
2021/03/03 10:28:34;;;;;;;32.70;21.35;;;11.90;92.80;;;;;;5073519;28;20039;-41
2021/03/03 10:31:02;;;;;;;35.92;23.48;;;12.20;92.70;;;;;;5054107;28;20016;-41
2021/03/03 10:33:31;;;;;;;37.00;22.60;;;12.30;92.20;;;;;;5088111;28;20078;-43
2021/03/03 10:35:58;;;;;;;38.67;22.27;;;12.30;92.40;;;;;;5091819;28;20143;-40
2021/03/03 10:38:25;;;;;;;43.45;24.20;;;12.50;92.20;;;;;;5090659;28;20032;-41
2021/03/03 10:40:52;;;;;;;39.13;22.75;;;12.40;91.80;;;;;;5091870;28;20211;-42
2021/03/03 10:43:20;;;;;;;38.58;22.85;;;12.30;92.00;;;;;;5076770;28;20032;-43
2021/03/03 10:45:47;;;;;;;33.50;21.98;;;12.20;92.60;;;;;;5072048;28;20023;-46
2021/03/03 10:48:30;;;;;;;33.58;23.40;;;12.10;92.80;;;;;;5071946;28;20032;-47
2021/03/03 10:50:58;;;;;;;39.05;23.02;;;12.10;93.00;;;;;;5071314;28;20505;-45
2021/03/03 10:53:24;;;;;;;38.35;23.80;;;12.00;93.10;;;;;;5084826;28;20532;-43
2021/03/03 10:55:49;;;;;;;42.55;23.60;;;12.10;93.20;;;;;;5080210;28;20103;-48
2021/03/03 10:58:17;;;;;;;37.58;24.50;;;12.20;92.90;;;;;;5088826;28;20031;-48
2021/03/03 11:00:59;;;;;;;39.42;24.00;;;12.20;92.90;;;;;;5084370;28;20024;-46
2021/03/03 11:03:26;;;;;;;40.30;23.08;;;12.40;93.00;;;;;;5077936;28;20024;-43
2021/03/03 11:05:59;;;;;;;41.85;24.55;;;12.20;92.90;;;;;;5090208;28;20023;-48
2021/03/03 11:08:26;;;;;;;40.95;24.17;;;12.30;93.00;;;;;;5087453;28;20048;-45
2021/03/03 11:11:03;;;;;;;38.30;24.77;;;12.20;93.20;;;;;;5085755;28;20024;-42
2021/03/03 11:13:28;;;;;;;37.70;23.35;;;12.20;93.60;;;;;;5092268;28;20452;-38
2021/03/03 11:15:54;;;;;;;38.55;23.05;;;12.20;93.30;;;;;;5088952;28;20104;-45
2021/03/03 11:18:19;;;;;;;37.58;23.67;;;12.20;93.30;;;;;;5081854;28;20040;-43
2021/03/03 11:20:45;;;;;;;43.63;24.77;;;12.30;93.80;;;;;;5089563;28;20103;-38
2021/03/03 11:23:10;;;;;;;40.47;24.15;;;12.30;93.60;;;;;;5077079;28;20107;-52
2021/03/03 11:25:36;;;;;;;38.60;23.45;;;12.40;93.80;;;;;;5088540;28;20032;-53
2021/03/03 11:28:02;;;;;;;39.38;22.92;;;12.40;93.20;;;;;;5075733;28;20029;-45
2021/03/03 11:30:27;;;;;;;35.83;23.40;;;12.40;93.20;;;;;;5088234;28;20538;-46
2021/03/03 11:32:53;;;;;;;37.80;24.27;;;12.40;93.20;;;;;;5084406;28;20378;-46
2021/03/03 11:35:20;;;;;;;35.17;23.48;;;12.40;93.20;;;;;;5090307;28;20446;-41
2021/03/03 11:37:45;;;;;;;37.42;25.02;;;12.30;93.20;;;;;;5086864;28;20513;-42
2021/03/03 11:40:12;;;;;;;37.25;24.30;;;12.30;93.30;;;;;;5087504;28;20039;-44
2021/03/03 11:42:37;;;;;;;36.88;22.98;;;12.30;93.40;;;;;;5082562;28;20021;-46
2021/03/03 11:45:05;;;;;;;42.65;24.55;;;12.20;93.50;;;;;;5068795;28;20398;-45
2021/03/03 11:47:31;;;;;;;40.90;25.75;;;12.20;93.40;;;;;;5073227;28;20039;-50
2021/03/03 11:49:56;;;;;;;39.63;24.83;;;12.10;93.60;;;;;;5077940;28;20374;-45
2021/03/03 11:52:22;;;;;;;39.90;24.33;;;12.00;93.70;;;;;;5070787;28;20111;-44
2021/03/03 11:54:47;;;;;;;41.70;26.42;;;12.00;94.10;;;;;;5086762;28;20028;-42
2021/03/03 11:57:13;;;;;;;34.17;23.85;;;12.00;94.00;;;;;;5100224;22;20040;-45
2021/03/03 11:59:38;;;;;;;40.40;24.25;;;12.00;94.40;;;;;;5048904;28;20110;-58
2021/03/03 12:02:05;;;;;;;35.15;24.48;;;12.00;94.20;;;;;;5057874;28;20037;-44
2021/03/03 12:04:31;;;;;;;43.67;24.15;;;12.10;94.20;;;;;;5053312;28;20292;-49
2021/03/03 12:06:56;;;;;;;41.15;24.58;;;12.10;93.70;;;;;;5068201;28;20452;-45
2021/03/03 12:09:22;;;;;;;37.22;24.75;;;12.10;93.40;;;;;;5053949;28;20119;-46
2021/03/03 12:11:47;;;;;;;40.80;23.20;;;12.20;93.20;;;;;;5054873;28;20052;-44
2021/03/03 12:14:13;;;;;;;42.60;26.08;;;12.20;93.40;;;;;;5053027;28;20512;-45
2021/03/03 12:16:39;;;;;;;39.47;25.83;;;12.20;93.50;;;;;;5071465;28;20386;-48
2021/03/03 12:19:04;;;;;;;37.22;24.02;;;12.30;93.50;;;;;;5073428;28;20032;-44
2021/03/03 12:21:30;;;;;;;40.05;24.58;;;12.20;93.30;;;;;;5073494;28;20033;-48
2021/03/03 12:23:57;;;;;;;44.67;25.27;;;12.30;93.60;;;;;;5080886;28;20138;-46
2021/03/03 12:26:22;;;;;;;44.30;25.40;;;12.30;93.50;;;;;;5050238;28;20085;-46
2021/03/03 12:28:48;;;;;;;39.80;24.58;;;12.50;93.70;;;;;;5047535;28;20120;-50
2021/03/03 12:31:13;;;;;;;37.55;23.90;;;12.60;92.20;;;;;;5050822;28;20100;-41
2021/03/03 12:33:39;;;;;;;35.53;24.88;;;12.60;92.10;;;;;;5050967;28;20028;-44
2021/03/03 12:36:06;;;;;;;37.70;22.92;;;12.60;92.60;;;;;;5049618;28;20021;-44
2021/03/03 12:38:32;;;;;;;38.38;24.10;;;12.60;91.50;;;;;;5051762;28;20032;-49
2021/03/03 12:40:58;;;;;;;38.83;24.15;;;12.60;91.40;;;;;;5051708;28;20025;-46
2021/03/03 12:43:24;;;;;;;40.03;23.77;;;12.60;91.80;;;;;;5052858;28;20067;-47